Time;durP1;ratioP1;P1;durP2;ratioP2;P2;SDS_P1;SDS_P2;PMS_P1;PMS_P2;Temp;Humidity;BMP_temperature;BMP_pressure;BME280_temperature;BME280_humidity;BME280_pressure;Samples;Min_cycle;Max_cycle;Signal;HPM_P1;HPM_P2
2021/09/09 00:00:31;;;;;;;10.57;7.73;;;15.50;99.90;;;;;;5034102;28;20460;-71
2021/09/09 00:02:59;;;;;;;8.50;7.67;;;15.50;99.90;;;;;;5034155;28;20471;-71
2021/09/09 00:05:26;;;;;;;8.67;7.80;;;15.50;99.90;;;;;;5033549;28;20460;-71
2021/09/09 00:07:52;;;;;;;9.13;8.13;;;15.50;99.90;;;;;;5034104;28;21060;-71
2021/09/09 00:10:21;;;;;;;8.93;8.00;;;15.50;99.90;;;;;;5034003;28;20471;-71
2021/09/09 00:12:47;;;;;;;8.63;7.43;;;15.50;99.90;;;;;;5033906;28;20456;-71
2021/09/09 00:15:14;;;;;;;8.37;7.60;;;15.50;99.90;;;;;;5033448;28;20468;-71
2021/09/09 00:17:41;;;;;;;9.07;8.00;;;15.50;99.90;;;;;;5033927;28;20491;-71
2021/09/09 00:20:09;;;;;;;9.00;8.10;;;15.50;99.90;;;;;;5033842;28;20468;-71
2021/09/09 00:22:37;;;;;;;9.77;7.43;;;15.50;99.90;;;;;;5033778;28;20468;-71
2021/09/09 00:25:04;;;;;;;8.87;7.50;;;15.50;99.90;;;;;;5033278;28;20475;-71
2021/09/09 00:27:32;;;;;;;9.23;8.30;;;15.40;99.90;;;;;;5033682;28;20849;-71
2021/09/09 00:29:59;;;;;;;12.17;8.70;;;15.40;99.90;;;;;;5033740;28;20971;-71
2021/09/09 00:32:26;;;;;;;9.47;7.47;;;15.40;99.90;;;;;;5033413;28;20456;-71
2021/09/09 00:34:53;;;;;;;9.37;7.90;;;15.40;99.90;;;;;;5033215;28;20459;-71
2021/09/09 00:37:20;;;;;;;11.73;9.17;;;15.40;99.90;;;;;;5033538;28;20483;-71
2021/09/09 00:39:47;;;;;;;8.57;7.67;;;15.40;99.90;;;;;;5033587;28;20949;-71
2021/09/09 00:42:14;;;;;;;9.50;8.00;;;15.30;99.90;;;;;;5033480;28;20460;-71
2021/09/09 00:44:42;;;;;;;9.87;8.00;;;15.30;99.90;;;;;;5033057;28;20460;-71
2021/09/09 00:47:10;;;;;;;12.67;8.00;;;15.30;99.90;;;;;;5033249;28;20487;-71
2021/09/09 00:49:39;;;;;;;8.63;7.73;;;15.30;99.90;;;;;;5033350;28;20820;-71
2021/09/09 00:52:06;;;;;;;8.53;7.73;;;15.30;99.90;;;;;;5033406;28;20472;-71
2021/09/09 00:54:33;;;;;;;8.50;7.30;;;15.30;99.90;;;;;;5032596;28;20460;-71
2021/09/09 00:57:02;;;;;;;8.50;7.67;;;15.30;99.90;;;;;;5033241;28;20480;-71
2021/09/09 00:59:28;;;;;;;8.13;6.80;;;15.30;99.90;;;;;;5032949;28;20495;-71
2021/09/09 01:01:56;;;;;;;8.90;7.00;;;15.30;99.90;;;;;;5033115;28;20464;-71
2021/09/09 01:04:23;;;;;;;9.03;7.87;;;15.30;99.90;;;;;;5031105;28;20471;-71
2021/09/09 01:06:50;;;;;;;8.30;7.40;;;15.20;99.90;;;;;;5033030;28;20461;-71
2021/09/09 01:09:17;;;;;;;7.67;6.90;;;15.30;99.90;;;;;;5033254;28;20468;-71
2021/09/09 01:11:44;;;;;;;8.43;7.33;;;15.30;99.90;;;;;;5033101;28;20456;-71
2021/09/09 01:14:13;;;;;;;8.17;7.30;;;15.30;99.90;;;;;;5032555;28;20460;-71
2021/09/09 01:16:41;;;;;;;8.10;7.30;;;15.30;99.90;;;;;;5032538;28;20467;-71
2021/09/09 01:19:11;;;;;;;9.80;8.17;;;15.30;99.90;;;;;;5032849;28;20488;-71
2021/09/09 01:21:39;;;;;;;7.40;6.70;;;15.30;99.90;;;;;;5032583;28;20456;-71
2021/09/09 01:24:09;;;;;;;8.13;7.30;;;15.30;99.90;;;;;;5032257;28;20468;-71
2021/09/09 01:26:48;;;;;;;7.97;7.03;;;15.30;99.90;;;;;;5032472;28;20464;-71
2021/09/09 01:29:15;;;;;;;8.00;7.07;;;15.30;99.90;;;;;;5032509;28;20464;-71
2021/09/09 01:31:41;;;;;;;6.90;5.97;;;15.30;99.90;;;;;;5032548;28;20831;-71
2021/09/09 01:34:08;;;;;;;8.07;6.53;;;15.30;99.90;;;;;;5031955;28;20460;-71
2021/09/09 01:36:35;;;;;;;7.50;6.80;;;15.20;99.90;;;;;;5032158;28;20456;-71
2021/09/09 01:39:02;;;;;;;8.00;7.20;;;15.20;99.90;;;;;;5032306;28;20856;-71
2021/09/09 01:41:30;;;;;;;7.80;7.00;;;15.20;99.90;;;;;;5032249;28;20467;-71
2021/09/09 01:43:56;;;;;;;7.53;6.83;;;15.20;99.90;;;;;;5031736;28;20467;-71
2021/09/09 01:46:23;;;;;;;8.90;7.20;;;15.20;99.90;;;;;;5032005;28;20469;-71
2021/09/09 01:48:51;;;;;;;8.20;7.43;;;15.20;99.90;;;;;;5032118;28;20837;-71
2021/09/09 01:51:18;;;;;;;9.47;7.30;;;15.20;99.90;;;;;;5032052;28;20475;-71
2021/09/09 01:53:44;;;;;;;8.33;6.53;;;15.30;99.90;;;;;;5031612;28;21127;-71
2021/09/09 01:56:11;;;;;;;8.00;7.20;;;15.30;99.90;;;;;;5031750;28;20471;-71
2021/09/09 01:58:40;;;;;;;9.30;8.13;;;15.30;99.90;;;;;;5031766;28;21014;-71
2021/09/09 02:01:07;;;;;;;8.70;7.90;;;15.40;99.90;;;;;;5031955;28;20457;-70
2021/09/09 02:03:33;;;;;;;8.53;7.60;;;15.40;99.90;;;;;;5031286;28;20543;-71
2021/09/09 02:06:00;;;;;;;8.10;7.30;;;15.50;99.90;;;;;;5031617;28;20839;-71
2021/09/09 02:08:26;;;;;;;8.27;7.47;;;15.60;99.90;;;;;;5031527;28;20487;-71
2021/09/09 02:10:53;;;;;;;8.17;7.20;;;15.60;99.90;;;;;;5031769;28;20485;-71
2021/09/09 02:13:20;;;;;;;7.00;6.30;;;15.60;99.90;;;;;;5031228;28;20487;-71
2021/09/09 02:15:48;;;;;;;9.60;8.67;;;15.70;99.90;;;;;;5030733;28;20463;-71
2021/09/09 02:18:15;;;;;;;8.30;7.50;;;15.70;99.90;;;;;;5031271;28;20486;-71
2021/09/09 02:20:41;;;;;;;8.20;7.40;;;15.80;99.90;;;;;;5039094;28;20468;-71
2021/09/09 02:23:08;;;;;;;8.33;7.53;;;15.80;99.90;;;;;;5051087;28;20459;-71
2021/09/09 02:25:35;;;;;;;9.47;7.67;;;15.90;99.90;;;;;;5050926;28;20467;-71
2021/09/09 02:28:02;;;;;;;8.47;7.67;;;16.00;99.90;;;;;;5051301;28;20484;-71
2021/09/09 02:30:28;;;;;;;8.37;7.53;;;16.10;99.90;;;;;;5051098;28;21130;-70
2021/09/09 02:32:56;;;;;;;9.13;7.80;;;16.20;99.90;;;;;;5051162;28;20874;-71
2021/09/09 02:35:23;;;;;;;8.47;7.60;;;16.20;99.90;;;;;;5050523;28;20463;-71
2021/09/09 02:37:50;;;;;;;8.53;7.73;;;16.30;99.90;;;;;;5051244;28;20885;-71
2021/09/09 02:40:17;;;;;;;8.67;7.77;;;16.40;99.90;;;;;;5050929;28;20494;-71
2021/09/09 02:42:44;;;;;;;9.10;7.83;;;16.40;99.90;;;;;;5050928;28;20483;-71
2021/09/09 02:45:11;;;;;;;8.00;7.20;;;16.50;99.90;;;;;;5050369;28;20460;-70
2021/09/09 02:47:39;;;;;;;8.60;7.80;;;16.50;99.90;;;;;;5050942;28;20846;-71
2021/09/09 02:50:08;;;;;;;9.60;8.60;;;16.60;99.90;;;;;;5050869;28;20461;-71
2021/09/09 02:52:35;;;;;;;8.47;7.57;;;16.60;99.90;;;;;;5050702;28;20464;-71
2021/09/09 02:55:03;;;;;;;9.30;7.50;;;16.70;99.90;;;;;;5050255;28;20439;-70
2021/09/09 02:57:30;;;;;;;9.37;8.23;;;16.70;99.90;;;;;;5050415;28;20487;-71
2021/09/09 02:59:57;;;;;;;8.50;7.67;;;16.70;99.90;;;;;;5050613;28;21038;-71
2021/09/09 03:02:24;;;;;;;7.67;6.97;;;16.70;99.90;;;;;;5050416;28;20459;-71
2021/09/09 03:04:51;;;;;;;8.90;8.10;;;16.70;99.90;;;;;;5049969;28;20460;-71
2021/09/09 03:07:20;;;;;;;8.07;7.10;;;16.80;99.90;;;;;;5050438;28;20483;-71
2021/09/09 03:09:46;;;;;;;8.30;7.43;;;16.80;99.90;;;;;;5050343;28;20470;-71
2021/09/09 03:12:13;;;;;;;8.93;7.30;;;16.80;99.90;;;;;;5043619;28;20475;-71
2021/09/09 03:14:40;;;;;;;8.10;7.40;;;16.80;99.90;;;;;;5029463;28;20956;-71
2021/09/09 03:17:07;;;;;;;8.63;7.87;;;16.80;99.90;;;;;;5030384;28;20859;-71
2021/09/09 03:19:33;;;;;;;7.73;7.03;;;16.90;99.90;;;;;;5030285;28;20499;-71
2021/09/09 03:22:00;;;;;;;8.13;7.23;;;16.90;99.90;;;;;;5030168;28;20890;-71
2021/09/09 03:24:28;;;;;;;8.73;7.83;;;16.90;99.90;;;;;;5029424;28;20472;-71
2021/09/09 03:26:55;;;;;;;8.73;7.47;;;16.90;99.90;;;;;;5029485;28;20865;-71
2021/09/09 03:29:21;;;;;;;8.17;7.37;;;17.00;99.90;;;;;;5030335;28;20465;-71
2021/09/09 03:31:48;;;;;;;8.33;7.53;;;17.00;99.90;;;;;;5030289;28;20468;-71
2021/09/09 03:34:15;;;;;;;7.00;6.40;;;17.00;99.90;;;;;;5029677;28;20979;-71
2021/09/09 03:36:41;;;;;;;7.20;6.50;;;17.00;99.90;;;;;;5029938;28;20460;-71
2021/09/09 03:39:08;;;;;;;7.93;6.93;;;17.10;99.90;;;;;;5035095;28;20475;-71
2021/09/09 03:41:36;;;;;;;7.97;6.90;;;17.10;99.90;;;;;;5039186;28;20460;-71
2021/09/09 03:44:03;;;;;;;8.53;7.60;;;17.10;99.90;;;;;;5037859;28;20464;-71
2021/09/09 03:46:30;;;;;;;7.47;6.83;;;17.10;99.90;;;;;;5038585;28;20836;-71
2021/09/09 03:48:57;;;;;;;8.37;7.60;;;17.10;99.90;;;;;;5041384;28;20456;-71
2021/09/09 03:51:24;;;;;;;7.97;7.17;;;17.10;99.90;;;;;;5040547;28;20463;-71
2021/09/09 03:53:51;;;;;;;10.07;6.90;;;17.10;99.90;;;;;;5039355;28;20467;-71
2021/09/09 03:56:17;;;;;;;8.80;7.70;;;17.10;99.90;;;;;;5038140;28;20467;-72
2021/09/09 03:58:45;;;;;;;8.60;7.80;;;17.10;99.90;;;;;;5040263;28;20493;-72
2021/09/09 04:01:12;;;;;;;7.80;7.10;;;17.10;99.90;;;;;;5031947;28;20460;-71
2021/09/09 04:03:39;;;;;;;7.57;6.87;;;17.10;99.90;;;;;;5029521;28;20460;-71
2021/09/09 04:06:06;;;;;;;8.93;7.67;;;17.10;99.90;;;;;;5038382;28;20451;-72
2021/09/09 04:08:32;;;;;;;8.27;7.23;;;17.20;99.90;;;;;;5049378;28;21001;-72
2021/09/09 04:10:59;;;;;;;7.40;6.40;;;17.20;99.90;;;;;;5043782;28;20561;-71
2021/09/09 04:13:26;;;;;;;7.57;6.77;;;17.20;99.90;;;;;;5037084;28;20468;-71
2021/09/09 04:15:54;;;;;;;8.73;7.87;;;17.20;99.90;;;;;;5038651;28;20455;-70
2021/09/09 04:18:20;;;;;;;8.20;7.40;;;17.30;99.90;;;;;;5039314;28;20495;-70
2021/09/09 04:20:47;;;;;;;8.60;7.20;;;17.30;99.90;;;;;;5037777;28;20483;-70
2021/09/09 04:23:14;;;;;;;8.43;7.60;;;17.30;99.90;;;;;;5038523;28;20462;-70
2021/09/09 04:25:40;;;;;;;8.40;7.17;;;17.30;99.90;;;;;;5039084;28;20461;-70
2021/09/09 04:28:07;;;;;;;7.40;6.70;;;17.30;99.90;;;;;;5080249;22;20521;-91
2021/09/09 04:30:34;;;;;;;7.80;7.00;;;17.30;99.90;;;;;;5071986;28;20461;-91
2021/09/09 04:33:02;;;;;;;9.07;7.27;;;17.30;99.90;;;;;;5073853;28;20466;-91
2021/09/09 04:35:29;;;;;;;8.80;7.90;;;17.30;99.90;;;;;;5073819;28;20467;-92
2021/09/09 04:37:56;;;;;;;8.13;7.30;;;17.30;99.90;;;;;;5074137;28;20573;-91
2021/09/09 04:40:23;;;;;;;8.80;7.90;;;17.30;99.90;;;;;;5077738;28;20831;-91
2021/09/09 04:42:50;;;;;;;9.13;8.20;;;17.30;99.90;;;;;;5078283;28;20490;-91
2021/09/09 04:45:17;;;;;;;8.33;7.27;;;17.30;99.90;;;;;;5078660;28;20528;-91
2021/09/09 04:47:44;;;;;;;8.53;7.73;;;17.30;99.90;;;;;;5079151;28;20489;-92
2021/09/09 04:50:12;;;;;;;10.27;7.03;;;17.30;99.90;;;;;;5077878;28;20901;-91
2021/09/09 04:52:39;;;;;;;8.50;7.70;;;17.20;99.90;;;;;;5077614;28;20466;-91
2021/09/09 04:55:07;;;;;;;8.20;7.40;;;17.20;99.90;;;;;;5078525;28;20545;-91
2021/09/09 04:57:34;;;;;;;9.13;7.30;;;17.20;99.90;;;;;;5077233;28;20482;-91
2021/09/09 05:00:01;;;;;;;9.63;8.10;;;17.20;99.90;;;;;;5076580;28;20481;-91
2021/09/09 05:02:28;;;;;;;9.20;7.67;;;17.20;99.90;;;;;;5076803;28;20465;-91
2021/09/09 05:04:55;;;;;;;8.10;7.30;;;17.10;99.90;;;;;;5076507;28;20501;-91
2021/09/09 05:07:23;;;;;;;8.13;7.43;;;17.10;99.90;;;;;;5076805;28;20574;-92
2021/09/09 05:09:50;;;;;;;7.83;7.00;;;17.10;99.90;;;;;;5076770;28;20493;-91
2021/09/09 05:12:17;;;;;;;8.00;7.30;;;17.10;99.90;;;;;;5076650;28;20494;-90
2021/09/09 05:14:44;;;;;;;9.07;8.17;;;17.10;99.90;;;;;;5076055;28;20561;-90
2021/09/09 05:17:11;;;;;;;8.57;7.70;;;17.20;99.90;;;;;;5075828;28;20551;-91
2021/09/09 05:19:38;;;;;;;8.60;7.47;;;17.20;99.90;;;;;;5076219;28;20577;-91
2021/09/09 05:22:05;;;;;;;8.40;7.17;;;17.20;99.90;;;;;;5075879;28;20553;-92
2021/09/09 05:24:33;;;;;;;8.30;7.50;;;17.10;99.90;;;;;;5075803;28;20516;-91
2021/09/09 05:27:00;;;;;;;9.33;7.63;;;17.10;99.90;;;;;;5075755;28;20482;-90
2021/09/09 05:29:27;;;;;;;8.03;7.23;;;17.10;99.90;;;;;;5076073;28;20520;-91
2021/09/09 05:31:54;;;;;;;11.40;7.87;;;17.10;99.90;;;;;;5076216;28;20888;-91
2021/09/09 05:34:20;;;;;;;8.77;7.00;;;17.10;99.90;;;;;;5076596;28;20545;-91
2021/09/09 05:36:47;;;;;;;8.00;6.70;;;17.20;99.90;;;;;;5075729;28;20482;-92
2021/09/09 05:39:14;;;;;;;7.60;6.90;;;17.20;99.90;;;;;;5076068;28;20462;-91
2021/09/09 05:41:43;;;;;;;7.77;6.97;;;17.20;99.90;;;;;;5076649;28;20553;-91
2021/09/09 05:44:09;;;;;;;8.13;7.40;;;17.30;99.90;;;;;;5077380;28;20458;-91
2021/09/09 05:46:36;;;;;;;8.23;7.43;;;17.30;99.90;;;;;;5077575;28;20566;-91
2021/09/09 05:49:03;;;;;;;7.90;7.10;;;17.30;99.90;;;;;;5076872;28;20458;-91
2021/09/09 05:51:30;;;;;;;8.10;7.40;;;17.40;99.90;;;;;;5078093;28;20565;-92
2021/09/09 05:53:59;;;;;;;8.40;7.60;;;17.50;99.90;;;;;;5078155;28;20490;-92
2021/09/09 06:01:50;;;;;;;7.90;7.10;;;17.70;99.90;;;;;;5075797;28;20823;-92
2021/09/09 06:04:18;;;;;;;7.77;6.97;;;17.80;99.90;;;;;;5075152;28;21002;-91
2021/09/09 06:06:57;;;;;;;9.43;7.73;;;17.80;99.90;;;;;;5075355;28;20513;-91
2021/09/09 06:12:05;;;;;;;7.37;6.67;;;17.80;99.90;;;;;;5081168;22;20565;-68
2021/09/09 06:14:33;;;;;;;8.17;7.37;;;17.90;99.90;;;;;;5051067;28;20499;-68
2021/09/09 06:17:00;;;;;;;8.47;6.50;;;18.00;99.90;;;;;;5051547;28;20892;-68
2021/09/09 06:19:27;;;;;;;7.77;6.97;;;18.10;99.90;;;;;;5051656;28;20464;-68
2021/09/09 06:21:54;;;;;;;8.70;6.50;;;18.10;99.90;;;;;;5051591;28;20455;-68
2021/09/09 06:24:20;;;;;;;7.83;6.60;;;18.20;99.90;;;;;;5050975;28;20986;-69
2021/09/09 06:26:47;;;;;;;7.73;7.03;;;18.30;99.90;;;;;;5051378;28;20490;-68
2021/09/09 06:29:14;;;;;;;8.70;7.00;;;18.30;99.90;;;;;;5051765;28;20970;-68
2021/09/09 06:31:42;;;;;;;7.40;6.50;;;18.40;99.90;;;;;;5045512;28;20468;-68
2021/09/09 06:34:08;;;;;;;7.70;6.67;;;18.40;99.90;;;;;;5042709;28;20475;-67
2021/09/09 06:36:35;;;;;;;7.67;7.03;;;18.50;99.90;;;;;;5030092;28;20468;-68
2021/09/09 06:39:02;;;;;;;9.03;8.13;;;18.60;99.90;;;;;;5045471;28;20486;-67
2021/09/09 06:41:29;;;;;;;7.77;6.97;;;18.70;99.90;;;;;;5051030;28;20479;-68
2021/09/09 06:43:56;;;;;;;8.03;7.23;;;18.70;99.90;;;;;;5043069;28;20471;-67
2021/09/09 06:46:22;;;;;;;6.77;6.17;;;18.70;99.90;;;;;;5046128;28;20819;-70
2021/09/09 06:48:50;;;;;;;7.47;6.73;;;18.80;99.90;;;;;;5039377;28;20491;-70
2021/09/09 06:51:21;;;;;;;7.20;6.50;;;18.90;99.90;;;;;;5041153;28;20460;-69
2021/09/09 06:53:47;;;;;;;7.97;7.17;;;19.00;99.90;;;;;;5048725;28;20567;-69
2021/09/09 06:56:14;;;;;;;7.50;6.90;;;19.10;99.90;;;;;;5049340;28;20976;-69
2021/09/09 06:58:41;;;;;;;8.17;6.93;;;19.20;99.90;;;;;;5049300;28;20487;-69
2021/09/09 07:01:08;;;;;;;7.90;6.67;;;19.20;99.90;;;;;;5044351;28;20992;-69
2021/09/09 07:03:34;;;;;;;7.43;6.73;;;19.30;99.90;;;;;;5034010;28;20464;-69
2021/09/09 07:06:02;;;;;;;7.17;6.47;;;19.30;99.90;;;;;;5043100;28;20832;-70
2021/09/09 07:08:29;;;;;;;8.20;7.23;;;19.30;99.90;;;;;;5035316;28;20483;-69
2021/09/09 07:10:56;;;;;;;7.93;7.13;;;19.50;99.90;;;;;;5042838;28;20978;-69
2021/09/09 07:13:23;;;;;;;8.10;7.03;;;19.50;99.90;;;;;;5048948;28;20470;-69
2021/09/09 07:15:50;;;;;;;7.60;6.90;;;19.60;99.90;;;;;;5035682;28;20875;-69
2021/09/09 07:18:16;;;;;;;7.87;6.87;;;19.70;99.90;;;;;;5045278;28;20478;-69
2021/09/09 07:20:43;;;;;;;7.33;6.63;;;19.80;99.90;;;;;;5048913;28;20537;-70
2021/09/09 07:23:11;;;;;;;11.30;7.10;;;19.90;99.90;;;;;;5048975;28;20463;-70
2021/09/09 07:25:38;;;;;;;6.80;6.10;;;20.00;99.90;;;;;;5041834;28;20471;-69
2021/09/09 07:28:05;;;;;;;8.13;7.33;;;20.10;99.90;;;;;;5048668;28;20486;-70
2021/09/09 07:30:32;;;;;;;7.30;6.60;;;20.20;99.90;;;;;;5049022;28;20455;-69
2021/09/09 07:32:59;;;;;;;8.33;7.53;;;20.30;99.90;;;;;;5048727;28;20459;-69
2021/09/09 07:35:26;;;;;;;8.73;6.60;;;20.30;99.90;;;;;;5048400;28;20463;-69
2021/09/09 07:37:52;;;;;;;7.63;6.87;;;20.50;99.90;;;;;;5040309;28;20487;-69
2021/09/09 07:40:21;;;;;;;7.93;7.10;;;20.50;99.90;;;;;;5045094;28;20493;-69
2021/09/09 07:42:47;;;;;;;7.40;6.70;;;20.60;99.90;;;;;;5048572;28;20504;-70
2021/09/09 07:45:14;;;;;;;7.63;6.93;;;20.70;99.90;;;;;;5047920;28;20510;-69
2021/09/09 07:47:42;;;;;;;7.57;6.87;;;20.80;99.90;;;;;;5048731;28;20919;-67
2021/09/09 07:50:11;;;;;;;9.23;6.97;;;20.90;99.90;;;;;;5047489;28;20467;-69
2021/09/09 07:52:40;;;;;;;7.53;6.50;;;21.10;99.90;;;;;;5049453;28;20506;-69
2021/09/09 07:55:09;;;;;;;8.67;6.77;;;21.30;99.90;;;;;;5049471;28;20469;-70
2021/09/09 07:57:39;;;;;;;7.37;6.77;;;21.30;99.90;;;;;;5049415;28;20479;-69
2021/09/09 08:00:08;;;;;;;8.67;7.07;;;21.30;99.90;;;;;;5046966;28;20466;-69
2021/09/09 08:02:34;;;;;;;8.13;7.13;;;21.30;99.90;;;;;;5049387;28;20483;-70
2021/09/09 08:05:01;;;;;;;8.10;7.23;;;21.20;99.90;;;;;;5049150;28;20459;-69
2021/09/09 08:07:28;;;;;;;7.50;6.40;;;21.30;99.90;;;;;;5049247;28;20483;-69
2021/09/09 08:09:55;;;;;;;7.97;7.17;;;21.40;99.90;;;;;;5049217;28;20838;-69
2021/09/09 08:12:22;;;;;;;8.20;7.40;;;21.30;99.90;;;;;;5049248;28;21044;-69
2021/09/09 08:14:50;;;;;;;7.33;6.63;;;21.40;99.90;;;;;;5051780;28;20541;-69
2021/09/09 08:17:17;;;;;;;6.83;6.17;;;21.50;99.90;;;;;;5052640;28;20475;-69
2021/09/09 08:19:43;;;;;;;8.10;6.17;;;21.70;99.90;;;;;;5052744;28;20488;-69
2021/09/09 08:22:10;;;;;;;6.70;6.10;;;21.80;99.90;;;;;;5052434;28;20529;-69
2021/09/09 08:24:37;;;;;;;6.60;6.00;;;21.80;99.90;;;;;;5052510;28;20498;-69
2021/09/09 08:27:05;;;;;;;7.67;6.67;;;21.80;99.90;;;;;;5052197;28;20483;-69
2021/09/09 08:29:32;;;;;;;7.80;6.10;;;21.80;99.90;;;;;;5051798;28;20463;-69
2021/09/09 08:32:01;;;;;;;7.97;6.67;;;21.80;99.90;;;;;;5052423;28;20455;-69
2021/09/09 08:34:29;;;;;;;6.30;5.70;;;21.90;99.90;;;;;;5052244;28;21000;-69
2021/09/09 08:36:59;;;;;;;6.57;6.07;;;21.90;99.90;;;;;;5052791;28;20483;-69
2021/09/09 08:39:26;;;;;;;6.67;6.00;;;22.20;99.90;;;;;;5053262;28;20459;-69
2021/09/09 08:41:54;;;;;;;8.20;6.07;;;22.40;99.90;;;;;;5052962;28;20537;-70
2021/09/09 08:44:23;;;;;;;7.40;6.23;;;22.50;99.90;;;;;;5052521;28;20498;-68
2021/09/09 08:46:51;;;;;;;6.27;5.67;;;22.60;99.90;;;;;;5052753;28;20459;-69
2021/09/09 08:49:24;;;;;;;6.53;6.03;;;22.60;99.90;;;;;;5052888;28;20540;-68
2021/09/09 08:51:52;;;;;;;6.77;6.17;;;22.70;99.90;;;;;;5052901;28;21281;-68
2021/09/09 08:54:20;;;;;;;10.60;6.87;;;22.90;99.90;;;;;;5052417;28;20459;-68
2021/09/09 08:56:48;;;;;;;6.47;5.87;;;23.00;99.90;;;;;;5036595;28;20849;-68
2021/09/09 08:59:15;;;;;;;6.70;6.17;;;23.10;99.90;;;;;;5048850;28;20462;-68
2021/09/09 09:02:04;;;;;;;8.53;6.80;;;23.20;99.90;;;;;;5051372;28;20489;-68
2021/09/09 09:04:33;;;;;;;8.03;6.27;;;23.30;99.90;;;;;;5051932;28;20805;-68
2021/09/09 09:07:01;;;;;;;6.70;5.80;;;23.50;99.90;;;;;;5052116;28;20486;-68
2021/09/09 09:09:32;;;;;;;7.63;6.83;;;23.60;99.90;;;;;;5052128;28;20467;-69
2021/09/09 09:11:59;;;;;;;7.47;6.63;;;23.80;99.90;;;;;;5051994;28;20471;-68
2021/09/09 09:14:26;;;;;;;6.60;5.50;;;23.90;99.90;;;;;;5051419;28;20466;-68
2021/09/09 09:16:55;;;;;;;9.60;6.17;;;24.00;99.90;;;;;;5051573;28;20843;-68
2021/09/09 09:19:24;;;;;;;7.13;6.20;;;24.00;99.90;;;;;;5047540;28;20493;-68
2021/09/09 09:21:55;;;;;;;7.23;6.63;;;24.00;99.90;;;;;;5051150;28;20479;-68
2021/09/09 09:24:23;;;;;;;6.33;5.83;;;24.20;99.90;;;;;;5050457;28;20469;-69
2021/09/09 09:27:20;;;;;;;6.90;6.30;;;24.40;99.90;;;;;;5030717;28;20480;-68
2021/09/09 09:30:01;;;;;;;6.90;6.20;;;24.60;99.90;;;;;;4991671;28;20482;-67
2021/09/09 09:32:28;;;;;;;7.80;6.17;;;24.80;99.90;;;;;;5036233;28;20465;-68
2021/09/09 09:35:11;;;;;;;7.70;6.97;;;24.60;99.90;;;;;;5036151;28;20475;-68
2021/09/09 09:37:51;;;;;;;7.20;6.50;;;24.40;99.90;;;;;;5049592;28;20498;-67
2021/09/09 09:40:23;;;;;;;7.30;6.60;;;24.30;99.90;;;;;;5051665;28;20459;-68
2021/09/09 09:42:50;;;;;;;6.43;5.93;;;24.40;99.90;;;;;;5049052;28;20483;-69
2021/09/09 09:45:17;;;;;;;6.40;5.90;;;24.70;99.90;;;;;;5049342;28;20455;-68
2021/09/09 09:47:43;;;;;;;7.27;6.60;;;24.90;99.90;;;;;;5050436;28;20483;-68
2021/09/09 09:50:19;;;;;;;7.47;5.63;;;25.00;99.90;;;;;;5046333;28;20831;-68
2021/09/09 09:52:47;;;;;;;6.40;5.90;;;25.20;99.90;;;;;;5046427;28;20550;-68
2021/09/09 09:55:15;;;;;;;7.10;6.50;;;25.30;99.90;;;;;;5049613;28;20832;-68
2021/09/09 09:57:52;;;;;;;5.77;5.27;;;25.40;99.90;;;;;;5050241;28;20479;-68
2021/09/09 10:00:19;;;;;;;6.10;5.43;;;25.50;99.90;;;;;;5050621;28;21261;-68
2021/09/09 10:02:47;;;;;;;6.90;6.20;;;25.70;99.90;;;;;;5049992;28;20494;-68
2021/09/09 10:05:14;;;;;;;5.83;5.33;;;25.60;99.90;;;;;;5050225;28;20839;-68
2021/09/09 10:07:41;;;;;;;6.13;5.47;;;25.50;99.90;;;;;;5050279;28;20570;-68
2021/09/09 10:10:10;;;;;;;7.33;6.07;;;25.50;99.90;;;;;;5050560;28;20947;-68
2021/09/09 10:12:37;;;;;;;8.90;5.83;;;25.50;99.90;;;;;;5049851;28;20464;-69
2021/09/09 10:15:07;;;;;;;6.40;5.80;;;25.60;99.90;;;;;;5049976;28;20455;-68
2021/09/09 10:17:34;;;;;;;5.57;5.10;;;25.60;99.90;;;;;;5049846;28;20479;-68
2021/09/09 10:20:28;;;;;;;6.87;6.00;;;25.50;99.90;;;;;;5050370;28;20463;-68
2021/09/09 10:23:04;;;;;;;5.60;5.20;;;25.50;99.90;;;;;;5049590;28;20574;-68
2021/09/09 10:25:47;;;;;;;5.73;5.23;;;25.40;99.90;;;;;;5049905;28;21200;-67
2021/09/09 10:28:40;;;;;;;5.80;5.20;;;25.50;99.90;;;;;;5050403;28;20532;-68
2021/09/09 10:31:08;;;;;;;7.30;5.90;;;25.80;99.90;;;;;;5050254;28;21026;-68
2021/09/09 10:33:38;;;;;;;5.00;4.50;;;25.70;99.90;;;;;;5049680;28;20558;-69
2021/09/09 10:36:04;;;;;;;7.20;5.83;;;25.50;99.90;;;;;;5049065;28;20469;-68
2021/09/09 10:38:34;;;;;;;6.83;6.10;;;25.40;99.90;;;;;;5050171;28;20510;-68
2021/09/09 10:41:04;;;;;;;5.43;4.63;;;25.30;99.90;;;;;;5049626;28;20470;-68
2021/09/09 10:43:50;;;;;;;5.87;4.57;;;25.30;99.90;;;;;;5049556;28;20473;-68
2021/09/09 10:46:17;;;;;;;7.17;4.50;;;25.60;99.90;;;;;;5049336;28;20467;-68
2021/09/09 10:48:46;;;;;;;5.20;4.60;;;25.70;99.90;;;;;;5049501;28;20577;-68
2021/09/09 10:51:18;;;;;;;5.93;5.33;;;25.70;99.90;;;;;;5049915;28;20505;-68
2021/09/09 10:53:53;;;;;;;5.43;4.93;;;25.80;99.90;;;;;;5048943;28;20459;-68
2021/09/09 10:56:23;;;;;;;5.70;5.10;;;25.80;99.90;;;;;;5049480;28;20463;-68
2021/09/09 10:59:10;;;;;;;5.00;4.60;;;25.70;99.90;;;;;;5049814;28;20479;-68
2021/09/09 11:01:37;;;;;;;5.47;4.93;;;25.50;99.90;;;;;;5049463;28;20479;-68
2021/09/09 11:06:36;;;;;;;5.20;4.63;;;25.60;99.90;;;;;;5026133;28;20464;-69
2021/09/09 11:09:14;;;;;;;4.70;4.30;;;25.80;99.90;;;;;;5024376;28;20467;-69
2021/09/09 11:11:46;;;;;;;4.87;4.47;;;25.90;99.90;;;;;;5030209;28;20484;-69
2021/09/09 11:14:13;;;;;;;4.90;4.50;;;26.00;99.90;;;;;;5030798;28;20470;-69
2021/09/09 11:16:40;;;;;;;6.60;4.70;;;26.10;99.90;;;;;;5020674;28;20488;-69
2021/09/09 11:19:08;;;;;;;5.23;4.77;;;26.30;99.90;;;;;;5024549;28;20467;-69
2021/09/09 11:21:37;;;;;;;5.20;4.60;;;26.30;99.90;;;;;;5027024;28;20480;-69
2021/09/09 11:24:06;;;;;;;5.73;4.93;;;26.40;99.90;;;;;;5037422;28;20554;-69
2021/09/09 11:26:34;;;;;;;5.30;4.40;;;26.40;99.90;;;;;;5040498;28;20576;-69
2021/09/09 11:29:02;;;;;;;5.67;4.50;;;26.50;99.90;;;;;;5038512;28;20468;-70
2021/09/09 11:31:30;;;;;;;5.13;4.73;;;26.50;99.90;;;;;;5036309;28;21076;-69
2021/09/09 11:33:59;;;;;;;5.63;4.87;;;26.50;99.90;;;;;;5036888;28;20510;-70
2021/09/09 11:36:29;;;;;;;5.20;4.80;;;26.60;99.90;;;;;;5037112;28;20470;-69
2021/09/09 11:39:00;;;;;;;4.80;4.40;;;26.60;99.90;;;;;;5034526;28;20875;-69
2021/09/09 11:41:31;;;;;;;5.20;4.77;;;26.70;99.90;;;;;;5034006;28;20478;-69
2021/09/09 11:44:00;;;;;;;4.77;4.37;;;26.60;99.90;;;;;;5036407;28;20993;-69
2021/09/09 11:46:32;;;;;;;5.73;5.07;;;26.60;99.90;;;;;;5036949;28;20877;-68
2021/09/09 11:49:01;;;;;;;5.10;4.60;;;26.60;99.90;;;;;;5039660;28;20459;-68
2021/09/09 11:51:34;;;;;;;5.40;4.90;;;26.60;99.90;;;;;;5040376;28;20518;-70
2021/09/09 11:54:02;;;;;;;5.50;5.00;;;26.50;99.90;;;;;;5038831;28;20464;-70
2021/09/09 11:56:29;;;;;;;5.33;4.93;;;26.40;99.90;;;;;;5036160;28;20463;-69
2021/09/09 11:59:01;;;;;;;5.60;5.10;;;26.30;99.90;;;;;;5038000;28;20866;-69
2021/09/09 12:01:30;;;;;;;5.93;5.33;;;26.40;99.90;;;;;;5031429;28;20507;-69
2021/09/09 12:03:58;;;;;;;5.13;4.67;;;26.50;99.90;;;;;;5032079;28;20560;-69
2021/09/09 12:06:25;;;;;;;5.90;5.40;;;26.40;99.90;;;;;;5030936;28;20456;-69
2021/09/09 12:08:52;;;;;;;5.33;4.33;;;26.30;99.90;;;;;;5032092;28;20484;-69
2021/09/09 12:11:19;;;;;;;5.40;4.90;;;26.40;99.90;;;;;;5029846;28;20464;-69
2021/09/09 12:13:46;;;;;;;5.07;4.67;;;26.50;99.90;;;;;;5031683;28;20568;-69
2021/09/09 12:16:15;;;;;;;5.00;4.53;;;26.80;99.90;;;;;;5038704;28;20466;-69
2021/09/09 12:18:43;;;;;;;9.07;5.30;;;26.90;99.90;;;;;;5051278;28;20518;-69
2021/09/09 12:21:12;;;;;;;5.00;4.50;;;26.90;99.90;;;;;;5052287;28;20840;-70
2021/09/09 12:23:39;;;;;;;5.53;4.93;;;27.00;99.90;;;;;;5051070;28;20491;-69
2021/09/09 12:26:16;;;;;;;5.23;4.73;;;27.10;99.90;;;;;;5051600;28;20856;-69
2021/09/09 12:28:43;;;;;;;5.40;4.90;;;27.00;99.90;;;;;;5051520;28;21278;-69
2021/09/09 12:31:10;;;;;;;6.43;5.20;;;26.90;99.90;;;;;;5052072;28;20459;-69
2021/09/09 12:33:39;;;;;;;5.90;5.40;;;26.60;99.90;;;;;;5051663;28;20464;-70
2021/09/09 12:36:10;;;;;;;8.83;5.33;;;26.40;99.90;;;;;;5050942;28;20455;-69
2021/09/09 12:38:40;;;;;;;6.23;5.73;;;26.20;99.90;;;;;;5051387;28;20848;-70
2021/09/09 12:41:07;;;;;;;6.27;4.63;;;26.20;99.90;;;;;;5047488;28;20464;-70
2021/09/09 12:43:38;;;;;;;6.53;5.33;;;26.40;99.90;;;;;;5031292;28;20484;-69
2021/09/09 12:46:06;;;;;;;4.97;4.47;;;26.40;99.90;;;;;;5030992;28;20460;-70
2021/09/09 12:48:35;;;;;;;5.13;4.63;;;26.40;99.90;;;;;;5031155;28;20476;-69
2021/09/09 12:51:04;;;;;;;6.33;5.30;;;26.40;99.90;;;;;;5031758;28;20479;-70
2021/09/09 12:53:34;;;;;;;4.67;4.27;;;26.50;99.90;;;;;;5030954;28;20452;-69
2021/09/09 12:56:04;;;;;;;6.00;4.50;;;26.70;99.90;;;;;;5031526;28;20468;-69
2021/09/09 12:58:30;;;;;;;5.13;4.63;;;26.70;99.90;;;;;;5030841;28;20977;-69
2021/09/09 13:00:59;;;;;;;5.60;5.10;;;26.60;99.90;;;;;;5031506;28;20461;-69